sensor_id;sensor_type;location;lat;lon;timestamp;temperature;humidity
7784;DHT22;19359;51.402;6.778;2022-10-18T00:00:51;15.20;99.90
7784;DHT22;19359;51.402;6.778;2022-10-18T00:03:18;15.20;99.90
7784;DHT22;19359;51.402;6.778;2022-10-18T00:05:45;15.20;99.90
7784;DHT22;19359;51.402;6.778;2022-10-18T00:08:14;15.20;99.90
7784;DHT22;19359;51.402;6.778;2022-10-18T00:10:40;15.20;99.90
7784;DHT22;19359;51.402;6.778;2022-10-18T00:13:07;15.20;99.90
7784;DHT22;19359;51.402;6.778;2022-10-18T00:15:34;15.20;99.90
7784;DHT22;19359;51.402;6.778;2022-10-18T00:18:00;15.20;99.90
7784;DHT22;19359;51.402;6.778;2022-10-18T00:20:27;15.20;99.90
7784;DHT22;19359;51.402;6.778;2022-10-18T00:22:54;15.20;99.90
7784;DHT22;19359;51.402;6.778;2022-10-18T00:25:22;15.10;99.90
7784;DHT22;19359;51.402;6.778;2022-10-18T00:27:49;15.10;99.90
7784;DHT22;19359;51.402;6.778;2022-10-18T00:30:15;15.20;99.90
7784;DHT22;19359;51.402;6.778;2022-10-18T00:32:42;15.20;99.90
7784;DHT22;19359;51.402;6.778;2022-10-18T00:35:09;15.20;99.90
7784;DHT22;19359;51.402;6.778;2022-10-18T00:37:36;15.20;99.90
7784;DHT22;19359;51.402;6.778;2022-10-18T00:40:03;15.20;99.90
7784;DHT22;19359;51.402;6.778;2022-10-18T00:42:34;15.20;99.90
7784;DHT22;19359;51.402;6.778;2022-10-18T00:45:16;15.20;99.90
7784;DHT22;19359;51.402;6.778;2022-10-18T00:47:46;15.20;99.90
7784;DHT22;19359;51.402;6.778;2022-10-18T00:50:14;15.10;99.90
7784;DHT22;19359;51.402;6.778;2022-10-18T00:52:42;15.20;99.90
7784;DHT22;19359;51.402;6.778;2022-10-18T00:55:12;15.20;99.90
7784;DHT22;19359;51.402;6.778;2022-10-18T00:57:41;15.20;99.90
7784;DHT22;19359;51.402;6.778;2022-10-18T01:00:09;15.20;99.90
7784;DHT22;19359;51.402;6.778;2022-10-18T01:02:37;15.10;99.90
7784;DHT22;19359;51.402;6.778;2022-10-18T01:05:06;15.10;99.90
7784;DHT22;19359;51.402;6.778;2022-10-18T01:10:29;15.00;99.90
7784;DHT22;19359;51.402;6.778;2022-10-18T01:13:06;15.00;99.90
7784;DHT22;19359;51.402;6.778;2022-10-18T01:15:36;15.00;99.90
7784;DHT22;19359;51.402;6.778;2022-10-18T01:18:08;15.00;99.90
7784;DHT22;19359;51.402;6.778;2022-10-18T01:21:06;15.00;99.90
7784;DHT22;19359;51.402;6.778;2022-10-18T01:23:52;15.00;99.90
7784;DHT22;19359;51.402;6.778;2022-10-18T01:26:34;15.00;99.90
7784;DHT22;19359;51.402;6.778;2022-10-18T01:29:16;15.00;99.90
7784;DHT22;19359;51.402;6.778;2022-10-18T01:31:50;15.00;99.90
7784;DHT22;19359;51.402;6.778;2022-10-18T01:34:19;15.00;99.90
7784;DHT22;19359;51.402;6.778;2022-10-18T01:36:47;15.00;99.90
7784;DHT22;19359;51.402;6.778;2022-10-18T01:39:20;15.00;99.90
7784;DHT22;19359;51.402;6.778;2022-10-18T01:41:50;15.00;99.90
7784;DHT22;19359;51.402;6.778;2022-10-18T01:44:20;15.00;99.90
7784;DHT22;19359;51.402;6.778;2022-10-18T01:46:52;15.00;99.90
7784;DHT22;19359;51.402;6.778;2022-10-18T01:49:19;15.00;99.90
7784;DHT22;19359;51.402;6.778;2022-10-18T01:51:46;15.00;99.90
7784;DHT22;19359;51.402;6.778;2022-10-18T01:54:17;15.00;99.90
7784;DHT22;19359;51.402;6.778;2022-10-18T01:56:53;15.00;99.90
7784;DHT22;19359;51.402;6.778;2022-10-18T01:59:34;15.00;99.90
7784;DHT22;19359;51.402;6.778;2022-10-18T02:02:11;15.00;99.90
7784;DHT22;19359;51.402;6.778;2022-10-18T02:04:45;15.00;99.90
7784;DHT22;19359;51.402;6.778;2022-10-18T02:07:22;15.00;99.90
7784;DHT22;19359;51.402;6.778;2022-10-18T02:09:57;15.00;99.90
7784;DHT22;19359;51.402;6.778;2022-10-18T02:12:27;15.00;99.90
7784;DHT22;19359;51.402;6.778;2022-10-18T02:14:55;15.00;99.90
7784;DHT22;19359;51.402;6.778;2022-10-18T02:17:26;15.00;99.90
7784;DHT22;19359;51.402;6.778;2022-10-18T02:19:54;15.00;99.90
7784;DHT22;19359;51.402;6.778;2022-10-18T02:22:23;15.00;99.90
7784;DHT22;19359;51.402;6.778;2022-10-18T02:24:54;15.00;99.90
7784;DHT22;19359;51.402;6.778;2022-10-18T02:27:22;15.00;99.90
7784;DHT22;19359;51.402;6.778;2022-10-18T02:29:49;15.00;99.90
7784;DHT22;19359;51.402;6.778;2022-10-18T02:32:19;15.00;99.90
7784;DHT22;19359;51.402;6.778;2022-10-18T02:34:56;15.00;99.90
7784;DHT22;19359;51.402;6.778;2022-10-18T02:37:29;15.00;99.90
7784;DHT22;19359;51.402;6.778;2022-10-18T02:39:56;14.90;99.90
7784;DHT22;19359;51.402;6.778;2022-10-18T02:42:23;14.90;99.90
7784;DHT22;19359;51.402;6.778;2022-10-18T02:44:50;14.90;99.90
7784;DHT22;19359;51.402;6.778;2022-10-18T02:47:16;14.90;99.90
7784;DHT22;19359;51.402;6.778;2022-10-18T02:49:43;14.90;99.90
7784;DHT22;19359;51.402;6.778;2022-10-18T02:52:11;14.90;99.90
7784;DHT22;19359;51.402;6.778;2022-10-18T02:54:38;14.90;99.90
7784;DHT22;19359;51.402;6.778;2022-10-18T02:57:04;14.90;99.90
7784;DHT22;19359;51.402;6.778;2022-10-18T02:59:31;14.90;99.90
7784;DHT22;19359;51.402;6.778;2022-10-18T03:01:58;14.90;99.90
7784;DHT22;19359;51.402;6.778;2022-10-18T03:04:25;14.90;99.90
7784;DHT22;19359;51.402;6.778;2022-10-18T03:06:51;14.90;99.90
7784;DHT22;19359;51.402;6.778;2022-10-18T03:09:19;14.90;99.90
7784;DHT22;19359;51.402;6.778;2022-10-18T03:11:46;14.90;99.90
7784;DHT22;19359;51.402;6.778;2022-10-18T03:14:13;14.90;99.90
7784;DHT22;19359;51.402;6.778;2022-10-18T03:16:40;14.90;99.90
7784;DHT22;19359;51.402;6.778;2022-10-18T03:19:06;14.90;99.90
7784;DHT22;19359;51.402;6.778;2022-10-18T03:21:33;15.00;99.90
7784;DHT22;19359;51.402;6.778;2022-10-18T03:24:01;15.00;99.90
7784;DHT22;19359;51.402;6.778;2022-10-18T03:26:29;15.00;99.90
7784;DHT22;19359;51.402;6.778;2022-10-18T03:28:56;14.90;99.90
7784;DHT22;19359;51.402;6.778;2022-10-18T03:31:22;15.00;99.90
7784;DHT22;19359;51.402;6.778;2022-10-18T03:33:49;15.00;99.90
7784;DHT22;19359;51.402;6.778;2022-10-18T03:36:16;15.00;99.90
7784;DHT22;19359;51.402;6.778;2022-10-18T03:38:43;15.00;99.90
7784;DHT22;19359;51.402;6.778;2022-10-18T03:41:09;14.90;99.90
7784;DHT22;19359;51.402;6.778;2022-10-18T03:43:37;14.90;99.90
7784;DHT22;19359;51.402;6.778;2022-10-18T03:46:04;14.90;99.90
7784;DHT22;19359;51.402;6.778;2022-10-18T03:48:31;14.90;99.90
7784;DHT22;19359;51.402;6.778;2022-10-18T03:50:58;14.90;99.90
7784;DHT22;19359;51.402;6.778;2022-10-18T03:53:24;14.80;99.90
7784;DHT22;19359;51.402;6.778;2022-10-18T03:55:51;14.80;99.90
7784;DHT22;19359;51.402;6.778;2022-10-18T03:58:18;14.80;99.90
7784;DHT22;19359;51.402;6.778;2022-10-18T04:00:49;14.80;99.90
7784;DHT22;19359;51.402;6.778;2022-10-18T04:03:16;14.80;99.90
7784;DHT22;19359;51.402;6.778;2022-10-18T04:05:43;14.80;99.90
7784;DHT22;19359;51.402;6.778;2022-10-18T04:08:10;14.80;99.90
7784;DHT22;19359;51.402;6.778;2022-10-18T04:10:37;14.80;99.90
7784;DHT22;19359;51.402;6.778;2022-10-18T04:13:04;14.80;99.90
7784;DHT22;19359;51.402;6.778;2022-10-18T04:15:31;14.90;99.90
7784;DHT22;19359;51.402;6.778;2022-10-18T04:18:00;14.90;99.90
7784;DHT22;19359;51.402;6.778;2022-10-18T04:20:27;14.90;99.90
7784;DHT22;19359;51.402;6.778;2022-10-18T04:22:54;14.90;99.90
7784;DHT22;19359;51.402;6.778;2022-10-18T04:25:22;14.90;99.90
7784;DHT22;19359;51.402;6.778;2022-10-18T04:27:49;14.90;99.90
7784;DHT22;19359;51.402;6.778;2022-10-18T04:30:16;14.90;99.90
7784;DHT22;19359;51.402;6.778;2022-10-18T04:32:42;14.90;99.90
7784;DHT22;19359;51.402;6.778;2022-10-18T04:35:11;14.90;99.90
7784;DHT22;19359;51.402;6.778;2022-10-18T04:37:37;14.90;99.90
7784;DHT22;19359;51.402;6.778;2022-10-18T04:40:05;14.90;99.90
7784;DHT22;19359;51.402;6.778;2022-10-18T04:42:32;15.00;99.90
7784;DHT22;19359;51.402;6.778;2022-10-18T04:44:59;15.00;99.90
7784;DHT22;19359;51.402;6.778;2022-10-18T04:47:25;15.00;99.90
7784;DHT22;19359;51.402;6.778;2022-10-18T04:49:52;15.00;99.90
7784;DHT22;19359;51.402;6.778;2022-10-18T04:52:20;15.00;99.90
7784;DHT22;19359;51.402;6.778;2022-10-18T04:54:47;15.00;99.90
7784;DHT22;19359;51.402;6.778;2022-10-18T04:57:13;15.00;99.90
7784;DHT22;19359;51.402;6.778;2022-10-18T04:59:40;15.00;99.90
7784;DHT22;19359;51.402;6.778;2022-10-18T05:02:07;15.00;99.90
7784;DHT22;19359;51.402;6.778;2022-10-18T05:04:34;15.00;99.90
7784;DHT22;19359;51.402;6.778;2022-10-18T05:07:01;15.00;99.90
7784;DHT22;19359;51.402;6.778;2022-10-18T05:09:31;15.00;99.90
7784;DHT22;19359;51.402;6.778;2022-10-18T05:11:58;15.00;99.90
7784;DHT22;19359;51.402;6.778;2022-10-18T05:14:25;15.00;99.90
7784;DHT22;19359;51.402;6.778;2022-10-18T05:16:51;15.10;99.90
7784;DHT22;19359;51.402;6.778;2022-10-18T05:19:18;15.10;99.90
7784;DHT22;19359;51.402;6.778;2022-10-18T05:21:45;15.10;99.90
7784;DHT22;19359;51.402;6.778;2022-10-18T05:24:12;15.10;99.90
7784;DHT22;19359;51.402;6.778;2022-10-18T05:26:40;15.10;99.90
7784;DHT22;19359;51.402;6.778;2022-10-18T05:29:06;15.10;99.90
7784;DHT22;19359;51.402;6.778;2022-10-18T05:31:33;15.10;99.90
7784;DHT22;19359;51.402;6.778;2022-10-18T05:34:00;15.00;99.90
7784;DHT22;19359;51.402;6.778;2022-10-18T05:36:27;15.00;99.90
7784;DHT22;19359;51.402;6.778;2022-10-18T05:38:53;15.00;99.90
7784;DHT22;19359;51.402;6.778;2022-10-18T05:41:21;15.00;99.90
7784;DHT22;19359;51.402;6.778;2022-10-18T05:43:49;15.00;99.90
7784;DHT22;19359;51.402;6.778;2022-10-18T05:46:15;15.00;99.90
7784;DHT22;19359;51.402;6.778;2022-10-18T05:48:43;15.00;99.90
7784;DHT22;19359;51.402;6.778;2022-10-18T05:51:10;15.10;99.90
7784;DHT22;19359;51.402;6.778;2022-10-18T05:53:36;15.10;99.90
7784;DHT22;19359;51.402;6.778;2022-10-18T05:56:04;15.10;99.90
7784;DHT22;19359;51.402;6.778;2022-10-18T05:58:30;15.00;99.90
7784;DHT22;19359;51.402;6.778;2022-10-18T06:00:59;15.10;99.90
7784;DHT22;19359;51.402;6.778;2022-10-18T06:03:27;15.00;99.90
7784;DHT22;19359;51.402;6.778;2022-10-18T06:05:58;15.00;99.90
7784;DHT22;19359;51.402;6.778;2022-10-18T06:08:25;15.00;99.90
7784;DHT22;19359;51.402;6.778;2022-10-18T06:10:52;15.00;99.90
7784;DHT22;19359;51.402;6.778;2022-10-18T06:13:19;15.10;99.90
7784;DHT22;19359;51.402;6.778;2022-10-18T06:15:46;15.10;99.90
7784;DHT22;19359;51.402;6.778;2022-10-18T06:18:14;15.10;99.90
7784;DHT22;19359;51.402;6.778;2022-10-18T06:20:41;15.10;99.90
7784;DHT22;19359;51.402;6.778;2022-10-18T06:23:07;15.10;99.90
7784;DHT22;19359;51.402;6.778;2022-10-18T06:25:34;15.10;99.90
7784;DHT22;19359;51.402;6.778;2022-10-18T06:28:02;15.10;99.90
7784;DHT22;19359;51.402;6.778;2022-10-18T06:30:29;15.20;99.90
7784;DHT22;19359;51.402;6.778;2022-10-18T06:32:58;15.20;99.90
7784;DHT22;19359;51.402;6.778;2022-10-18T06:35:26;15.20;99.90
7784;DHT22;19359;51.402;6.778;2022-10-18T06:37:53;15.10;99.90
7784;DHT22;19359;51.402;6.778;2022-10-18T06:40:20;15.20;99.90
7784;DHT22;19359;51.402;6.778;2022-10-18T06:42:46;15.20;99.90
7784;DHT22;19359;51.402;6.778;2022-10-18T06:45:14;15.20;99.90
7784;DHT22;19359;51.402;6.778;2022-10-18T06:47:42;15.20;99.90
7784;DHT22;19359;51.402;6.778;2022-10-18T06:50:09;15.20;99.90
7784;DHT22;19359;51.402;6.778;2022-10-18T06:52:38;15.20;99.90
7784;DHT22;19359;51.402;6.778;2022-10-18T06:55:07;15.20;99.90
7784;DHT22;19359;51.402;6.778;2022-10-18T06:57:33;15.20;99.90
7784;DHT22;19359;51.402;6.778;2022-10-18T07:00:01;15.20;99.90
7784;DHT22;19359;51.402;6.778;2022-10-18T07:02:28;15.30;99.90
7784;DHT22;19359;51.402;6.778;2022-10-18T07:04:55;15.30;99.90
7784;DHT22;19359;51.402;6.778;2022-10-18T07:07:22;15.30;99.90
7784;DHT22;19359;51.402;6.778;2022-10-18T07:09:50;15.30;99.90
7784;DHT22;19359;51.402;6.778;2022-10-18T07:12:16;15.40;99.90
7784;DHT22;19359;51.402;6.778;2022-10-18T07:14:43;15.50;99.90
7784;DHT22;19359;51.402;6.778;2022-10-18T07:17:11;15.50;99.90
7784;DHT22;19359;51.402;6.778;2022-10-18T07:19:38;15.50;99.90
7784;DHT22;19359;51.402;6.778;2022-10-18T07:22:04;15.50;99.90
7784;DHT22;19359;51.402;6.778;2022-10-18T07:24:31;15.60;99.90
7784;DHT22;19359;51.402;6.778;2022-10-18T07:26:59;15.60;99.90
7784;DHT22;19359;51.402;6.778;2022-10-18T07:29:26;15.60;99.90
7784;DHT22;19359;51.402;6.778;2022-10-18T07:31:53;15.70;99.90
7784;DHT22;19359;51.402;6.778;2022-10-18T07:34:19;15.70;99.90
7784;DHT22;19359;51.402;6.778;2022-10-18T07:36:46;15.80;99.90
7784;DHT22;19359;51.402;6.778;2022-10-18T07:39:13;15.80;99.90
7784;DHT22;19359;51.402;6.778;2022-10-18T07:41:39;15.90;99.90
7784;DHT22;19359;51.402;6.778;2022-10-18T07:44:07;15.90;99.90
7784;DHT22;19359;51.402;6.778;2022-10-18T07:46:34;15.90;99.90
7784;DHT22;19359;51.402;6.778;2022-10-18T07:49:01;15.90;99.90
7784;DHT22;19359;51.402;6.778;2022-10-18T07:51:28;15.90;99.90
7784;DHT22;19359;51.402;6.778;2022-10-18T07:53:56;16.00;99.90
7784;DHT22;19359;51.402;6.778;2022-10-18T07:56:23;16.00;99.90
7784;DHT22;19359;51.402;6.778;2022-10-18T07:58:51;16.10;99.90
7784;DHT22;19359;51.402;6.778;2022-10-18T08:01:20;16.10;99.90
7784;DHT22;19359;51.402;6.778;2022-10-18T08:03:48;16.10;99.90
7784;DHT22;19359;51.402;6.778;2022-10-18T08:06:16;16.10;99.90
7784;DHT22;19359;51.402;6.778;2022-10-18T08:08:44;16.10;99.90
7784;DHT22;19359;51.402;6.778;2022-10-18T08:11:12;16.20;99.90
7784;DHT22;19359;51.402;6.778;2022-10-18T08:13:40;16.20;99.90
7784;DHT22;19359;51.402;6.778;2022-10-18T08:16:08;16.20;99.90
7784;DHT22;19359;51.402;6.778;2022-10-18T08:18:37;16.20;99.90
7784;DHT22;19359;51.402;6.778;2022-10-18T08:21:05;16.30;99.90
7784;DHT22;19359;51.402;6.778;2022-10-18T08:23:33;16.20;99.90
7784;DHT22;19359;51.402;6.778;2022-10-18T08:26:00;16.20;99.90
7784;DHT22;19359;51.402;6.778;2022-10-18T08:28:27;16.30;99.90
7784;DHT22;19359;51.402;6.778;2022-10-18T08:30:53;16.20;99.90
7784;DHT22;19359;51.402;6.778;2022-10-18T08:33:20;16.20;99.90
7784;DHT22;19359;51.402;6.778;2022-10-18T08:35:55;16.10;99.90
7784;DHT22;19359;51.402;6.778;2022-10-18T08:38:22;16.10;99.90
7784;DHT22;19359;51.402;6.778;2022-10-18T08:40:48;16.10;99.90
7784;DHT22;19359;51.402;6.778;2022-10-18T08:43:23;16.10;99.90
7784;DHT22;19359;51.402;6.778;2022-10-18T08:45:53;16.10;99.90
7784;DHT22;19359;51.402;6.778;2022-10-18T08:48:24;16.10;99.90
7784;DHT22;19359;51.402;6.778;2022-10-18T08:50:54;16.20;99.90
7784;DHT22;19359;51.402;6.778;2022-10-18T08:53:26;16.10;99.90
7784;DHT22;19359;51.402;6.778;2022-10-18T08:55:57;16.20;99.90
7784;DHT22;19359;51.402;6.778;2022-10-18T08:58:30;16.20;99.90
7784;DHT22;19359;51.402;6.778;2022-10-18T09:01:02;16.20;99.90
7784;DHT22;19359;51.402;6.778;2022-10-18T09:03:47;16.20;99.90
7784;DHT22;19359;51.402;6.778;2022-10-18T09:06:22;16.30;99.90
7784;DHT22;19359;51.402;6.778;2022-10-18T09:11:53;16.20;99.90
7784;DHT22;19359;51.402;6.778;2022-10-18T09:17:20;16.20;99.90
7784;DHT22;19359;51.402;6.778;2022-10-18T09:19:57;16.20;99.90
7784;DHT22;19359;51.402;6.778;2022-10-18T09:22:37;16.30;99.90
7784;DHT22;19359;51.402;6.778;2022-10-18T09:25:10;16.40;99.90
7784;DHT22;19359;51.402;6.778;2022-10-18T09:27:50;16.40;99.90
7784;DHT22;19359;51.402;6.778;2022-10-18T09:30:26;16.40;99.90
7784;DHT22;19359;51.402;6.778;2022-10-18T09:33:00;16.50;99.90
7784;DHT22;19359;51.402;6.778;2022-10-18T09:35:35;16.60;99.90
7784;DHT22;19359;51.402;6.778;2022-10-18T09:38:08;16.70;99.90
7784;DHT22;19359;51.402;6.778;2022-10-18T09:40:43;16.80;99.90
7784;DHT22;19359;51.402;6.778;2022-10-18T09:43:16;17.00;99.90
7784;DHT22;19359;51.402;6.778;2022-10-18T09:45:44;17.30;99.90
7784;DHT22;19359;51.402;6.778;2022-10-18T09:48:16;17.40;99.90
7784;DHT22;19359;51.402;6.778;2022-10-18T09:50:49;17.40;99.90
7784;DHT22;19359;51.402;6.778;2022-10-18T09:53:24;17.50;99.90
7784;DHT22;19359;51.402;6.778;2022-10-18T09:55:59;17.60;99.90
7784;DHT22;19359;51.402;6.778;2022-10-18T09:58:29;17.60;99.90
7784;DHT22;19359;51.402;6.778;2022-10-18T10:01:00;17.60;99.90
7784;DHT22;19359;51.402;6.778;2022-10-18T10:03:27;17.70;99.90
7784;DHT22;19359;51.402;6.778;2022-10-18T10:06:01;17.60;99.90
7784;DHT22;19359;51.402;6.778;2022-10-18T10:08:32;17.60;99.90
7784;DHT22;19359;51.402;6.778;2022-10-18T10:10:59;17.40;99.90
7784;DHT22;19359;51.402;6.778;2022-10-18T10:13:26;17.50;99.90
7784;DHT22;19359;51.402;6.778;2022-10-18T10:15:55;17.40;99.90
7784;DHT22;19359;51.402;6.778;2022-10-18T10:18:24;17.40;99.90
7784;DHT22;19359;51.402;6.778;2022-10-18T10:20:53;17.50;99.90
7784;DHT22;19359;51.402;6.778;2022-10-18T10:23:22;17.40;99.90
7784;DHT22;19359;51.402;6.778;2022-10-18T10:25:53;17.30;99.90
7784;DHT22;19359;51.402;6.778;2022-10-18T10:28:22;17.50;99.90
7784;DHT22;19359;51.402;6.778;2022-10-18T10:30:50;17.50;99.90
7784;DHT22;19359;51.402;6.778;2022-10-18T10:33:33;17.60;99.90
7784;DHT22;19359;51.402;6.778;2022-10-18T10:36:01;17.70;99.90
7784;DHT22;19359;51.402;6.778;2022-10-18T10:38:30;17.70;99.90
7784;DHT22;19359;51.402;6.778;2022-10-18T10:40:58;17.70;99.90
7784;DHT22;19359;51.402;6.778;2022-10-18T10:43:26;17.60;99.90
7784;DHT22;19359;51.402;6.778;2022-10-18T10:45:58;17.50;99.90
7784;DHT22;19359;51.402;6.778;2022-10-18T10:48:27;17.30;99.90
7784;DHT22;19359;51.402;6.778;2022-10-18T10:50:59;17.30;99.90
7784;DHT22;19359;51.402;6.778;2022-10-18T10:53:28;17.30;99.90
7784;DHT22;19359;51.402;6.778;2022-10-18T10:55:58;17.30;99.90
7784;DHT22;19359;51.402;6.778;2022-10-18T10:58:27;17.40;99.90
7784;DHT22;19359;51.402;6.778;2022-10-18T11:00:56;17.40;99.90
7784;DHT22;19359;51.402;6.778;2022-10-18T11:03:23;17.50;99.90
7784;DHT22;19359;51.402;6.778;2022-10-18T11:05:51;17.60;99.90
7784;DHT22;19359;51.402;6.778;2022-10-18T11:08:21;17.70;99.90
7784;DHT22;19359;51.402;6.778;2022-10-18T11:10:57;17.80;99.90
7784;DHT22;19359;51.402;6.778;2022-10-18T11:13:37;17.90;99.90
7784;DHT22;19359;51.402;6.778;2022-10-18T11:16:12;18.00;1.00
7784;DHT22;19359;51.402;6.778;2022-10-18T11:18:42;18.00;1.00
7784;DHT22;19359;51.402;6.778;2022-10-18T11:21:15;17.90;1.00
7784;DHT22;19359;51.402;6.778;2022-10-18T11:23:43;17.90;1.00
7784;DHT22;19359;51.402;6.778;2022-10-18T11:26:20;18.00;1.00
7784;DHT22;19359;51.402;6.778;2022-10-18T11:29:00;18.00;99.90
7784;DHT22;19359;51.402;6.778;2022-10-18T11:31:31;18.00;99.90
7784;DHT22;19359;51.402;6.778;2022-10-18T11:34:11;18.00;1.00
7784;DHT22;19359;51.402;6.778;2022-10-18T11:36:49;17.90;1.00
7784;DHT22;19359;51.402;6.778;2022-10-18T11:39:23;18.00;1.00
7784;DHT22;19359;51.402;6.778;2022-10-18T11:41:59;17.90;1.00
7784;DHT22;19359;51.402;6.778;2022-10-18T11:44:35;17.90;1.00
7784;DHT22;19359;51.402;6.778;2022-10-18T11:47:07;18.00;1.00
7784;DHT22;19359;51.402;6.778;2022-10-18T11:50:01;18.00;1.00
7784;DHT22;19359;51.402;6.778;2022-10-18T11:52:38;17.90;1.00
7784;DHT22;19359;51.402;6.778;2022-10-18T11:55:23;17.80;1.00
7784;DHT22;19359;51.402;6.778;2022-10-18T11:57:59;17.90;1.00
7784;DHT22;19359;51.402;6.778;2022-10-18T12:00:39;17.80;1.00
7784;DHT22;19359;51.402;6.778;2022-10-18T12:03:26;17.90;1.00
7784;DHT22;19359;51.402;6.778;2022-10-18T12:05:55;17.90;1.00
7784;DHT22;19359;51.402;6.778;2022-10-18T12:08:27;18.00;1.00
7784;DHT22;19359;51.402;6.778;2022-10-18T12:11:07;17.90;1.00
7784;DHT22;19359;51.402;6.778;2022-10-18T12:13:39;17.90;1.00
7784;DHT22;19359;51.402;6.778;2022-10-18T12:16:10;18.00;1.00
7784;DHT22;19359;51.402;6.778;2022-10-18T12:18:47;18.10;1.00
7784;DHT22;19359;51.402;6.778;2022-10-18T12:21:19;18.30;1.00
7784;DHT22;19359;51.402;6.778;2022-10-18T12:23:50;18.20;1.00
7784;DHT22;19359;51.402;6.778;2022-10-18T12:26:18;18.30;1.00
7784;DHT22;19359;51.402;6.778;2022-10-18T12:28:53;18.30;1.00
7784;DHT22;19359;51.402;6.778;2022-10-18T12:31:26;18.30;1.00
7784;DHT22;19359;51.402;6.778;2022-10-18T12:34:00;18.50;1.00
7784;DHT22;19359;51.402;6.778;2022-10-18T12:36:51;18.60;1.00
7784;DHT22;19359;51.402;6.778;2022-10-18T12:39:23;18.70;1.00
7784;DHT22;19359;51.402;6.778;2022-10-18T12:41:53;18.70;1.00
7784;DHT22;19359;51.402;6.778;2022-10-18T12:44:25;18.80;1.00
7784;DHT22;19359;51.402;6.778;2022-10-18T12:46:57;18.90;1.00
7784;DHT22;19359;51.402;6.778;2022-10-18T12:49:28;18.80;1.00
7784;DHT22;19359;51.402;6.778;2022-10-18T12:51:56;18.90;1.00
7784;DHT22;19359;51.402;6.778;2022-10-18T12:54:26;18.80;1.00
7784;DHT22;19359;51.402;6.778;2022-10-18T12:56:53;18.60;1.00
7784;DHT22;19359;51.402;6.778;2022-10-18T12:59:48;18.80;1.00
7784;DHT22;19359;51.402;6.778;2022-10-18T13:02:22;19.60;1.00
7784;DHT22;19359;51.402;6.778;2022-10-18T13:04:49;20.60;1.00
7784;DHT22;19359;51.402;6.778;2022-10-18T13:07:32;21.40;1.00
7784;DHT22;19359;51.402;6.778;2022-10-18T13:13:29;20.90;1.00
7784;DHT22;19359;51.402;6.778;2022-10-18T13:16:05;20.30;1.00
7784;DHT22;19359;51.402;6.778;2022-10-18T13:18:46;20.20;1.00
7784;DHT22;19359;51.402;6.778;2022-10-18T13:21:19;20.40;1.00
7784;DHT22;19359;51.402;6.778;2022-10-18T13:26:45;21.70;1.00
7784;DHT22;19359;51.402;6.778;2022-10-18T13:29:29;22.30;1.00
7784;DHT22;19359;51.402;6.778;2022-10-18T13:32:01;22.50;1.00
7784;DHT22;19359;51.402;6.778;2022-10-18T13:34:33;22.70;1.00
7784;DHT22;19359;51.402;6.778;2022-10-18T13:37:04;23.00;1.00
7784;DHT22;19359;51.402;6.778;2022-10-18T13:39:32;22.60;1.00
7784;DHT22;19359;51.402;6.778;2022-10-18T13:42:27;21.80;1.00
7784;DHT22;19359;51.402;6.778;2022-10-18T13:51:32;19.70;1.00
7784;DHT22;19359;51.402;6.778;2022-10-18T13:54:09;19.40;1.00
7784;DHT22;19359;51.402;6.778;2022-10-18T13:56:50;19.20;1.00
7784;DHT22;19359;51.402;6.778;2022-10-18T13:59:30;19.20;1.00
7784;DHT22;19359;51.402;6.778;2022-10-18T14:02:17;19.40;1.00
7784;DHT22;19359;51.402;6.778;2022-10-18T14:05:02;19.30;1.00
7784;DHT22;19359;51.402;6.778;2022-10-18T14:07:34;19.30;1.00
7784;DHT22;19359;51.402;6.778;2022-10-18T14:10:02;19.30;1.00
7784;DHT22;19359;51.402;6.778;2022-10-18T14:12:33;19.00;1.00
7784;DHT22;19359;51.402;6.778;2022-10-18T14:15:06;18.90;1.00
7784;DHT22;19359;51.402;6.778;2022-10-18T14:17:38;18.90;1.00
7784;DHT22;19359;51.402;6.778;2022-10-18T14:20:16;19.00;1.00
7784;DHT22;19359;51.402;6.778;2022-10-18T14:22:48;19.20;1.00
7784;DHT22;19359;51.402;6.778;2022-10-18T14:25:24;20.00;1.00
7784;DHT22;19359;51.402;6.778;2022-10-18T14:28:05;20.80;1.00
7784;DHT22;19359;51.402;6.778;2022-10-18T14:30:34;21.70;1.00
7784;DHT22;19359;51.402;6.778;2022-10-18T14:33:02;22.80;1.00
7784;DHT22;19359;51.402;6.778;2022-10-18T14:35:31;23.50;1.00
7784;DHT22;19359;51.402;6.778;2022-10-18T14:38:01;24.20;1.00
7784;DHT22;19359;51.402;6.778;2022-10-18T14:40:32;24.60;1.00
7784;DHT22;19359;51.402;6.778;2022-10-18T14:43:04;24.50;1.00
7784;DHT22;19359;51.402;6.778;2022-10-18T14:45:31;24.60;1.00
7784;DHT22;19359;51.402;6.778;2022-10-18T14:48:12;24.70;1.00
7784;DHT22;19359;51.402;6.778;2022-10-18T14:50:40;25.10;1.00
7784;DHT22;19359;51.402;6.778;2022-10-18T14:53:18;24.90;1.00
7784;DHT22;19359;51.402;6.778;2022-10-18T14:55:52;24.50;1.00
7784;DHT22;19359;51.402;6.778;2022-10-18T14:58:20;24.40;1.00
7784;DHT22;19359;51.402;6.778;2022-10-18T15:00:47;23.80;1.00
7784;DHT22;19359;51.402;6.778;2022-10-18T15:03:15;23.50;1.00
7784;DHT22;19359;51.402;6.778;2022-10-18T15:05:54;23.00;1.00
7784;DHT22;19359;51.402;6.778;2022-10-18T15:08:22;22.70;1.00
7784;DHT22;19359;51.402;6.778;2022-10-18T15:10:50;22.30;1.00
7784;DHT22;19359;51.402;6.778;2022-10-18T15:13:17;22.50;1.00
7784;DHT22;19359;51.402;6.778;2022-10-18T15:15:44;22.40;1.00
7784;DHT22;19359;51.402;6.778;2022-10-18T15:18:20;22.10;1.00
7784;DHT22;19359;51.402;6.778;2022-10-18T15:21:05;21.70;1.00
7784;DHT22;19359;51.402;6.778;2022-10-18T15:23:34;21.30;1.00
7784;DHT22;19359;51.402;6.778;2022-10-18T15:26:03;21.20;1.00
7784;DHT22;19359;51.402;6.778;2022-10-18T15:28:32;21.00;1.00
7784;DHT22;19359;51.402;6.778;2022-10-18T15:31:01;20.70;99.90
7784;DHT22;19359;51.402;6.778;2022-10-18T15:33:29;20.20;1.00
7784;DHT22;19359;51.402;6.778;2022-10-18T15:36:07;19.80;1.00
7784;DHT22;19359;51.402;6.778;2022-10-18T15:38:37;19.80;99.90
7784;DHT22;19359;51.402;6.778;2022-10-18T15:41:37;19.70;1.00
7784;DHT22;19359;51.402;6.778;2022-10-18T15:44:21;19.90;1.00
7784;DHT22;19359;51.402;6.778;2022-10-18T15:46:50;19.60;1.00
7784;DHT22;19359;51.402;6.778;2022-10-18T15:49:50;19.30;1.00
7784;DHT22;19359;51.402;6.778;2022-10-18T15:52:43;19.00;1.00
7784;DHT22;19359;51.402;6.778;2022-10-18T15:55:45;18.60;1.00
7784;DHT22;19359;51.402;6.778;2022-10-18T15:58:16;18.30;1.00
7784;DHT22;19359;51.402;6.778;2022-10-18T16:00:44;18.00;1.00
7784;DHT22;19359;51.402;6.778;2022-10-18T16:03:11;17.80;1.00
7784;DHT22;19359;51.402;6.778;2022-10-18T16:05:39;17.60;1.00
7784;DHT22;19359;51.402;6.778;2022-10-18T16:08:14;17.40;1.00
7784;DHT22;19359;51.402;6.778;2022-10-18T16:10:41;17.30;1.00
7784;DHT22;19359;51.402;6.778;2022-10-18T16:13:09;17.20;1.00
7784;DHT22;19359;51.402;6.778;2022-10-18T16:15:37;17.00;1.00
7784;DHT22;19359;51.402;6.778;2022-10-18T16:18:03;16.80;1.00
7784;DHT22;19359;51.402;6.778;2022-10-18T16:20:30;16.70;1.00
7784;DHT22;19359;51.402;6.778;2022-10-18T16:22:57;16.50;1.00
7784;DHT22;19359;51.402;6.778;2022-10-18T16:25:23;16.40;1.00
7784;DHT22;19359;51.402;6.778;2022-10-18T16:27:50;16.20;1.00
7784;DHT22;19359;51.402;6.778;2022-10-18T16:30:20;16.00;1.00
7784;DHT22;19359;51.402;6.778;2022-10-18T16:32:47;15.80;1.00